< Cyclone 196405 1964 Season Cyclone 196407 >
Cyclone 196406 (EVA)
General InformationTrack Information on Google Maps || ResourceGoogle EarthGE AnimationAtom FeedGeoJSON
Detalied Best Track (Time Zone = UTC)
Year Month Day Hour Lat. Long. Pressure (hPa) Wind (kt) Class Image Chart
1964 2 25 01 -4.9 100.0 1005 0 0 -- --
1964 2 25 04 -5.1 98.2 1005 0 0 -- --
1964 2 25 07 -5.4 97.6 1005 0 0 -- --
1964 2 25 10 -5.6 96.3 1005 0 0 -- --
1964 2 25 16 -6.1 95.6 1005 0 0 -- --
1964 2 25 19 -6.4 95.0 1005 0 0 -- --
1964 2 25 22 -6.7 94.6 1005 0 0 -- --
1964 2 26 01 -6.9 94.0 1005 0 0 -- --
1964 2 26 04 -7.6 93.2 1005 0 0 -- --
1964 2 26 07 -8.4 92.5 1004 0 0 -- --
1964 2 26 10 -9.1 91.7 1004 0 0 -- --
1964 2 26 16 -10.6 90.2 1003 0 0 -- --
1964 2 26 19 -11.4 89.5 1002 0 0 -- --
1964 2 26 22 -12.1 88.8 1001 0 0 -- --
1964 2 27 01 -12.9 88.0 1000 0 0 -- --
1964 2 27 04 -13.6 88.5 999 0 0 -- --
1964 2 27 07 -14.4 89.0 998 0 0 -- --
1964 2 27 10 -15.1 89.5 996 0 0 -- --
1964 2 27 16 -16.6 90.5 995 0 0 -- --
1964 2 27 19 -17.4 91.0 994 0 0 -- --
1964 2 27 22 -18.1 91.5 992 0 0 -- --
1964 2 28 01 -18.9 92.0 990 0 0 -- --
1964 2 28 04 -19.6 92.5 991 0 0 -- --
1964 2 28 07 -20.3 93.0 993 0 0 -- --
1964 2 28 10 -20.9 93.5 994 0 0 -- --
1964 2 28 16 -22.1 94.5 997 0 0 -- --
1964 2 28 19 -22.7 95.0 998 0 0 -- --
1964 2 28 22 -23.3 95.5 999 0 0 -- --
1964 2 29 01 -23.9 96.0 1000 0 0 -- --
1964 2 29 04 -24.6 96.1 1000 0 0 -- --
1964 2 29 07 -25.4 96.3 1000 0 0 -- --
1964 2 29 10 -26.1 96.4 1000 0 0 -- --
1964 2 29 16 -27.6 96.7 1000 0 0 -- --
1964 2 29 19 -28.4 96.8 1000 0 0 -- --
1964 2 29 22 -29.1 96.9 1000 0 0 -- --
1964 3 1 01 -29.9 97.0 1000 0 0 -- --
1964 3 1 04 -30.6 98.3 1000 0 0 -- --
1964 3 1 07 -31.3 99.5 1000 0 0 -- --
1964 3 1 16 -33.1 103.3 1000 0 0 -- --
1964 3 1 19 -33.7 104.5 1000 0 0 -- --
1964 3 1 22 -34.3 105.8 1000 0 0 -- --
1964 3 2 01 -34.9 107.0 1000 0 0 -- --
< Cyclone 196405 1964 Season Cyclone 196407 >

Help